sensor_id;sensor_type;location;lat;lon;timestamp;pressure;altitude;pressure_sealevel;temperature;humidity
50268;BME280;36153;50.960;6.220;2023-03-22T00:00:01;100109.50;;;16.07;52.29
50268;BME280;36153;50.960;6.220;2023-03-22T00:03:05;100106.41;;;15.83;52.85
50268;BME280;36153;50.960;6.220;2023-03-22T00:06:08;100102.06;;;15.81;52.78
50268;BME280;36153;50.960;6.220;2023-03-22T00:09:10;100098.59;;;15.79;52.78
50268;BME280;36153;50.960;6.220;2023-03-22T00:12:11;100100.47;;;15.70;52.92
50268;BME280;36153;50.960;6.220;2023-03-22T00:15:13;100092.03;;;15.50;53.64
50268;BME280;36153;50.960;6.220;2023-03-22T00:18:16;100094.41;;;15.65;53.22
50268;BME280;36153;50.960;6.220;2023-03-22T00:21:18;100088.34;;;15.63;53.13
50268;BME280;36153;50.960;6.220;2023-03-22T00:24:20;100092.84;;;15.55;53.71
50268;BME280;36153;50.960;6.220;2023-03-22T00:27:22;100086.00;;;15.43;53.68
50268;BME280;36153;50.960;6.220;2023-03-22T00:30:23;100073.59;;;15.56;53.44
50268;BME280;36153;50.960;6.220;2023-03-22T00:33:26;100072.66;;;15.59;52.87
50268;BME280;36153;50.960;6.220;2023-03-22T00:36:27;100072.88;;;15.45;53.45
50268;BME280;36153;50.960;6.220;2023-03-22T00:39:29;100067.75;;;15.37;53.62
50268;BME280;36153;50.960;6.220;2023-03-22T00:42:30;100056.56;;;15.26;54.28
50268;BME280;36153;50.960;6.220;2023-03-22T00:45:30;100055.75;;;15.21;54.17
50268;BME280;36153;50.960;6.220;2023-03-22T00:48:30;100060.16;;;15.20;54.40
50268;BME280;36153;50.960;6.220;2023-03-22T00:51:31;100050.50;;;15.21;54.29
50268;BME280;36153;50.960;6.220;2023-03-22T00:54:31;100049.66;;;15.20;54.29
50268;BME280;36153;50.960;6.220;2023-03-22T00:57:32;100047.16;;;15.11;54.26
50268;BME280;36153;50.960;6.220;2023-03-22T01:00:32;100045.56;;;15.02;54.93
50268;BME280;36153;50.960;6.220;2023-03-22T01:03:33;100041.06;;;15.10;54.19
50268;BME280;36153;50.960;6.220;2023-03-22T01:06:34;100031.56;;;15.01;54.55
50268;BME280;36153;50.960;6.220;2023-03-22T01:09:34;100030.66;;;15.04;54.19
50268;BME280;36153;50.960;6.220;2023-03-22T01:12:34;100027.25;;;14.99;54.05
50268;BME280;36153;50.960;6.220;2023-03-22T01:15:35;100022.03;;;14.96;54.19
50268;BME280;36153;50.960;6.220;2023-03-22T01:18:36;100021.28;;;14.88;55.15
50268;BME280;36153;50.960;6.220;2023-03-22T01:21:36;100023.88;;;14.91;54.65
50268;BME280;36153;50.960;6.220;2023-03-22T01:24:37;100019.34;;;15.02;54.67
50268;BME280;36153;50.960;6.220;2023-03-22T01:27:37;100014.88;;;15.07;54.61
50268;BME280;36153;50.960;6.220;2023-03-22T01:30:39;100009.56;;;15.13;55.04
50268;BME280;36153;50.960;6.220;2023-03-22T01:33:39;100006.88;;;15.16;54.87
50268;BME280;36153;50.960;6.220;2023-03-22T01:36:40;100010.59;;;15.01;54.77
50268;BME280;36153;50.960;6.220;2023-03-22T01:39:40;100003.63;;;15.02;54.64
50268;BME280;36153;50.960;6.220;2023-03-22T01:42:41;99988.88;;;14.95;55.62
50268;BME280;36153;50.960;6.220;2023-03-22T01:45:47;99986.31;;;14.89;55.72
50268;BME280;36153;50.960;6.220;2023-03-22T01:48:48;99992.56;;;14.80;55.36
50268;BME280;36153;50.960;6.220;2023-03-22T01:51:50;99991.44;;;14.98;54.98
50268;BME280;36153;50.960;6.220;2023-03-22T01:54:52;99977.56;;;14.91;55.44
50268;BME280;36153;50.960;6.220;2023-03-22T01:57:54;99983.63;;;14.95;55.46
50268;BME280;36153;50.960;6.220;2023-03-22T02:00:55;99969.66;;;14.93;55.28
50268;BME280;36153;50.960;6.220;2023-03-22T02:03:59;99962.44;;;15.07;54.86
50268;BME280;36153;50.960;6.220;2023-03-22T02:07:06;99960.78;;;15.03;54.63
50268;BME280;36153;50.960;6.220;2023-03-22T02:10:11;99960.88;;;14.97;55.38
50268;BME280;36153;50.960;6.220;2023-03-22T02:30:29;99925.25;;;14.85;55.12
50268;BME280;36153;50.960;6.220;2023-03-22T02:37:06;99921.63;;;14.92;55.83
50268;BME280;36153;50.960;6.220;2023-03-22T02:46:45;99927.59;;;15.02;55.20
50268;BME280;36153;50.960;6.220;2023-03-22T02:53:17;99922.44;;;14.96;55.00
50268;BME280;36153;50.960;6.220;2023-03-22T02:56:51;99916.38;;;14.94;55.14
50268;BME280;36153;50.960;6.220;2023-03-22T02:59:54;99919.13;;;14.84;55.28
50268;BME280;36153;50.960;6.220;2023-03-22T03:03:00;99914.75;;;14.87;54.99
50268;BME280;36153;50.960;6.220;2023-03-22T03:06:12;99919.28;;;14.75;55.65
50268;BME280;36153;50.960;6.220;2023-03-22T03:09:15;99912.25;;;14.77;55.95
50268;BME280;36153;50.960;6.220;2023-03-22T03:12:23;99915.81;;;14.73;55.83
50268;BME280;36153;50.960;6.220;2023-03-22T03:15:23;99920.13;;;14.76;55.40
50268;BME280;36153;50.960;6.220;2023-03-22T03:18:40;99907.97;;;14.72;55.97
50268;BME280;36153;50.960;6.220;2023-03-22T03:24:56;99905.34;;;14.72;55.62
50268;BME280;36153;50.960;6.220;2023-03-22T03:32:01;99905.31;;;14.73;55.59
50268;BME280;36153;50.960;6.220;2023-03-22T03:35:14;99906.25;;;14.69;55.27
50268;BME280;36153;50.960;6.220;2023-03-22T03:38:23;99900.28;;;14.58;55.40
50268;BME280;36153;50.960;6.220;2023-03-22T03:41:27;99901.13;;;14.61;55.26
50268;BME280;36153;50.960;6.220;2023-03-22T03:44:30;99897.63;;;14.59;55.66
50268;BME280;36153;50.960;6.220;2023-03-22T03:47:33;99904.53;;;14.68;55.19
50268;BME280;36153;50.960;6.220;2023-03-22T03:50:34;99901.97;;;14.62;55.37
50268;BME280;36153;50.960;6.220;2023-03-22T03:53:34;99909.91;;;14.56;55.61
50268;BME280;36153;50.960;6.220;2023-03-22T03:56:34;99907.22;;;14.63;54.93
50268;BME280;36153;50.960;6.220;2023-03-22T03:59:35;99910.09;;;14.43;55.52
50268;BME280;36153;50.960;6.220;2023-03-22T04:02:35;99904.84;;;14.45;55.68
50268;BME280;36153;50.960;6.220;2023-03-22T04:05:35;99913.47;;;14.53;55.55
50268;BME280;36153;50.960;6.220;2023-03-22T04:08:36;99897.59;;;14.64;55.45
50268;BME280;36153;50.960;6.220;2023-03-22T04:11:36;99901.97;;;14.65;55.51
50268;BME280;36153;50.960;6.220;2023-03-22T04:14:37;99895.09;;;14.55;55.40
50268;BME280;36153;50.960;6.220;2023-03-22T04:17:38;99890.66;;;14.58;55.05
50268;BME280;36153;50.960;6.220;2023-03-22T04:20:45;99888.19;;;14.49;55.32
50268;BME280;36153;50.960;6.220;2023-03-22T04:23:45;99882.03;;;14.51;55.37
50268;BME280;36153;50.960;6.220;2023-03-22T04:26:46;99881.09;;;14.57;55.34
50268;BME280;36153;50.960;6.220;2023-03-22T04:29:46;99875.09;;;14.50;55.56
50268;BME280;36153;50.960;6.220;2023-03-22T04:32:50;99881.84;;;14.67;55.05
50268;BME280;36153;50.960;6.220;2023-03-22T04:35:50;99877.53;;;14.60;55.20
50268;BME280;36153;50.960;6.220;2023-03-22T04:38:56;99887.19;;;14.58;55.01
50268;BME280;36153;50.960;6.220;2023-03-22T04:41:56;99883.06;;;14.41;55.65
50268;BME280;36153;50.960;6.220;2023-03-22T04:44:56;99885.59;;;14.46;55.65
50268;BME280;36153;50.960;6.220;2023-03-22T04:47:58;99871.00;;;14.31;55.95
50268;BME280;36153;50.960;6.220;2023-03-22T04:50:58;99884.16;;;14.25;56.25
50268;BME280;36153;50.960;6.220;2023-03-22T04:54:03;99879.94;;;14.14;57.21
50268;BME280;36153;50.960;6.220;2023-03-22T04:57:03;99875.13;;;14.46;56.38
50268;BME280;36153;50.960;6.220;2023-03-22T05:00:04;99875.06;;;14.52;56.21
50268;BME280;36153;50.960;6.220;2023-03-22T05:03:07;99878.56;;;14.51;56.19
50268;BME280;36153;50.960;6.220;2023-03-22T05:06:08;99874.22;;;14.48;56.29
50268;BME280;36153;50.960;6.220;2023-03-22T05:09:10;99879.25;;;14.64;55.11
50268;BME280;36153;50.960;6.220;2023-03-22T05:12:10;99884.19;;;14.85;54.90
50268;BME280;36153;50.960;6.220;2023-03-22T05:15:11;99887.53;;;14.94;54.47
50268;BME280;36153;50.960;6.220;2023-03-22T05:18:12;99880.56;;;14.93;54.27
50268;BME280;36153;50.960;6.220;2023-03-22T05:21:17;99895.38;;;14.95;54.41
50268;BME280;36153;50.960;6.220;2023-03-22T05:24:21;99892.22;;;14.73;55.19
50268;BME280;36153;50.960;6.220;2023-03-22T05:27:21;99884.78;;;15.03;54.63
50268;BME280;36153;50.960;6.220;2023-03-22T05:30:30;99885.63;;;15.04;54.61
50268;BME280;36153;50.960;6.220;2023-03-22T05:33:31;99886.25;;;15.18;54.19
50268;BME280;36153;50.960;6.220;2023-03-22T05:36:33;99883.50;;;15.26;53.94
50268;BME280;36153;50.960;6.220;2023-03-22T05:39:35;99884.38;;;15.26;54.12
50268;BME280;36153;50.960;6.220;2023-03-22T05:42:36;99876.25;;;15.40;53.50
50268;BME280;36153;50.960;6.220;2023-03-22T05:45:36;99888.91;;;15.16;54.19
50268;BME280;36153;50.960;6.220;2023-03-22T05:48:37;99882.19;;;15.00;54.70
50268;BME280;36153;50.960;6.220;2023-03-22T05:51:38;99873.50;;;14.98;54.52
50268;BME280;36153;50.960;6.220;2023-03-22T05:54:41;99870.94;;;14.93;54.38
50268;BME280;36153;50.960;6.220;2023-03-22T05:57:42;99886.66;;;14.95;54.47
50268;BME280;36153;50.960;6.220;2023-03-22T06:00:43;99880.47;;;14.99;54.28
50268;BME280;36153;50.960;6.220;2023-03-22T06:03:43;99879.53;;;15.01;53.98
50268;BME280;36153;50.960;6.220;2023-03-22T06:06:43;99881.97;;;15.12;53.98
50268;BME280;36153;50.960;6.220;2023-03-22T06:09:44;99883.28;;;14.88;54.12
50268;BME280;36153;50.960;6.220;2023-03-22T06:12:45;99886.38;;;15.12;53.69
50268;BME280;36153;50.960;6.220;2023-03-22T06:15:45;99885.50;;;15.11;53.38
50268;BME280;36153;50.960;6.220;2023-03-22T06:18:46;99877.63;;;15.13;53.30
50268;BME280;36153;50.960;6.220;2023-03-22T06:21:46;99881.03;;;15.16;53.41
50268;BME280;36153;50.960;6.220;2023-03-22T06:24:47;99874.97;;;15.14;53.34
50268;BME280;36153;50.960;6.220;2023-03-22T06:27:47;99865.44;;;15.10;53.16
50268;BME280;36153;50.960;6.220;2023-03-22T06:30:48;99872.16;;;15.24;52.98
50268;BME280;36153;50.960;6.220;2023-03-22T06:33:48;99859.25;;;15.14;53.00
50268;BME280;36153;50.960;6.220;2023-03-22T06:36:49;99869.59;;;15.21;52.61
50268;BME280;36153;50.960;6.220;2023-03-22T06:39:49;99867.50;;;15.41;52.06
50268;BME280;36153;50.960;6.220;2023-03-22T06:42:50;99868.44;;;15.37;52.30
50268;BME280;36153;50.960;6.220;2023-03-22T06:45:51;99865.50;;;15.54;51.70
50268;BME280;36153;50.960;6.220;2023-03-22T06:48:51;99859.72;;;15.36;52.06
50268;BME280;36153;50.960;6.220;2023-03-22T06:51:52;99859.72;;;15.36;52.10
50268;BME280;36153;50.960;6.220;2023-03-22T06:54:52;99868.00;;;15.62;51.40
50268;BME280;36153;50.960;6.220;2023-03-22T06:57:52;99869.16;;;15.45;51.23
50268;BME280;36153;50.960;6.220;2023-03-22T07:00:56;99863.38;;;15.73;50.79
50268;BME280;36153;50.960;6.220;2023-03-22T07:03:56;99855.59;;;15.70;50.76
50268;BME280;36153;50.960;6.220;2023-03-22T07:06:57;99865.53;;;15.52;51.23
50268;BME280;36153;50.960;6.220;2023-03-22T07:09:57;99867.94;;;15.63;50.98
50268;BME280;36153;50.960;6.220;2023-03-22T07:12:58;99863.56;;;15.64;50.73
50268;BME280;36153;50.960;6.220;2023-03-22T07:15:59;99872.50;;;15.53;50.82
50268;BME280;36153;50.960;6.220;2023-03-22T07:19:00;99867.28;;;15.53;50.85
50268;BME280;36153;50.960;6.220;2023-03-22T07:22:01;99860.81;;;15.72;50.31
50268;BME280;36153;50.960;6.220;2023-03-22T07:25:01;99869.72;;;15.61;50.87
50268;BME280;36153;50.960;6.220;2023-03-22T07:28:01;99873.75;;;15.82;50.42
50268;BME280;36153;50.960;6.220;2023-03-22T07:31:04;99873.34;;;15.56;50.47
50268;BME280;36153;50.960;6.220;2023-03-22T07:34:05;99875.56;;;15.77;50.23
50268;BME280;36153;50.960;6.220;2023-03-22T07:37:06;99878.19;;;15.77;50.32
50268;BME280;36153;50.960;6.220;2023-03-22T07:40:07;99882.44;;;15.84;50.48
50268;BME280;36153;50.960;6.220;2023-03-22T07:43:08;99872.28;;;15.66;50.27
50268;BME280;36153;50.960;6.220;2023-03-22T07:46:11;99879.59;;;15.48;50.69
50268;BME280;36153;50.960;6.220;2023-03-22T07:49:11;99877.63;;;15.60;50.31
50268;BME280;36153;50.960;6.220;2023-03-22T07:52:12;99884.78;;;15.51;50.63
50268;BME280;36153;50.960;6.220;2023-03-22T07:55:13;99888.25;;;15.53;50.73
50268;BME280;36153;50.960;6.220;2023-03-22T07:58:13;99886.88;;;15.82;49.98
50268;BME280;36153;50.960;6.220;2023-03-22T08:01:14;99892.44;;;16.09;49.37
50268;BME280;36153;50.960;6.220;2023-03-22T08:04:14;99893.47;;;16.02;49.50
50268;BME280;36153;50.960;6.220;2023-03-22T08:07:15;99888.25;;;15.99;49.37
50268;BME280;36153;50.960;6.220;2023-03-22T08:10:17;99882.75;;;16.11;49.09
50268;BME280;36153;50.960;6.220;2023-03-22T08:13:18;99892.22;;;16.18;48.55
50268;BME280;36153;50.960;6.220;2023-03-22T08:16:18;99891.56;;;16.09;48.46
50268;BME280;36153;50.960;6.220;2023-03-22T08:19:19;99888.38;;;15.94;48.91
50268;BME280;36153;50.960;6.220;2023-03-22T08:22:19;99894.16;;;16.10;48.73
50268;BME280;36153;50.960;6.220;2023-03-22T08:25:24;99891.53;;;16.10;48.88
50268;BME280;36153;50.960;6.220;2023-03-22T08:28:24;99899.69;;;15.98;49.23
50268;BME280;36153;50.960;6.220;2023-03-22T08:31:24;99887.44;;;15.97;48.44
50268;BME280;36153;50.960;6.220;2023-03-22T08:34:25;99887.94;;;16.14;47.89
50268;BME280;36153;50.960;6.220;2023-03-22T08:37:26;99897.94;;;16.37;47.62
50268;BME280;36153;50.960;6.220;2023-03-22T08:40:26;99892.03;;;16.28;47.60
50268;BME280;36153;50.960;6.220;2023-03-22T08:43:26;99887.22;;;16.48;47.63
50268;BME280;36153;50.960;6.220;2023-03-22T08:46:27;99880.88;;;16.95;46.87
50268;BME280;36153;50.960;6.220;2023-03-22T08:49:27;99888.63;;;17.01;46.32
50268;BME280;36153;50.960;6.220;2023-03-22T08:52:27;99886.41;;;16.82;46.34
50268;BME280;36153;50.960;6.220;2023-03-22T08:55:28;99883.66;;;16.51;46.81
50268;BME280;36153;50.960;6.220;2023-03-22T08:58:28;99873.88;;;16.58;46.20
50268;BME280;36153;50.960;6.220;2023-03-22T09:01:29;99882.22;;;16.36;46.66
50268;BME280;36153;50.960;6.220;2023-03-22T09:04:30;99873.13;;;16.90;46.16
50268;BME280;36153;50.960;6.220;2023-03-22T09:07:30;99885.13;;;16.63;45.70
50268;BME280;36153;50.960;6.220;2023-03-22T09:10:31;99880.00;;;16.57;46.13
50268;BME280;36153;50.960;6.220;2023-03-22T09:13:31;99894.19;;;16.88;45.88
50268;BME280;36153;50.960;6.220;2023-03-22T09:16:32;99884.22;;;16.64;46.16
50268;BME280;36153;50.960;6.220;2023-03-22T09:19:32;99870.41;;;16.93;46.36
50268;BME280;36153;50.960;6.220;2023-03-22T09:22:32;99886.13;;;16.95;46.13
50268;BME280;36153;50.960;6.220;2023-03-22T09:25:33;99861.81;;;16.85;45.81
50268;BME280;36153;50.960;6.220;2023-03-22T09:28:34;99859.00;;;16.94;45.67
50268;BME280;36153;50.960;6.220;2023-03-22T09:31:35;99870.91;;;17.42;44.75
50268;BME280;36153;50.960;6.220;2023-03-22T09:34:35;99870.91;;;17.09;44.67
50268;BME280;36153;50.960;6.220;2023-03-22T09:37:36;99864.56;;;17.16;44.19
50268;BME280;36153;50.960;6.220;2023-03-22T09:40:44;99873.72;;;17.67;44.10
50268;BME280;36153;50.960;6.220;2023-03-22T09:43:50;99857.06;;;17.67;43.43
50268;BME280;36153;50.960;6.220;2023-03-22T09:46:54;99856.50;;;18.18;43.13
50268;BME280;36153;50.960;6.220;2023-03-22T09:50:12;99853.06;;;17.85;42.27
50268;BME280;36153;50.960;6.220;2023-03-22T09:53:15;99841.53;;;17.89;42.99
50268;BME280;36153;50.960;6.220;2023-03-22T09:56:22;99839.22;;;18.38;42.42
50268;BME280;36153;50.960;6.220;2023-03-22T09:59:43;99849.56;;;17.84;42.59
50268;BME280;36153;50.960;6.220;2023-03-22T10:03:00;99844.97;;;17.93;42.41
50268;BME280;36153;50.960;6.220;2023-03-22T10:06:09;99845.88;;;17.91;42.46
50268;BME280;36153;50.960;6.220;2023-03-22T10:09:17;99858.34;;;18.15;42.32
50268;BME280;36153;50.960;6.220;2023-03-22T10:15:50;99839.66;;;17.94;43.07
50268;BME280;36153;50.960;6.220;2023-03-22T10:18:56;99850.97;;;17.66;43.39
50268;BME280;36153;50.960;6.220;2023-03-22T10:22:01;99849.03;;;17.71;42.17
50268;BME280;36153;50.960;6.220;2023-03-22T10:25:05;99846.53;;;17.67;42.80
50268;BME280;36153;50.960;6.220;2023-03-22T10:31:16;99842.28;;;17.30;42.79
50268;BME280;36153;50.960;6.220;2023-03-22T10:34:22;99845.09;;;17.55;42.90
50268;BME280;36153;50.960;6.220;2023-03-22T10:37:30;99848.44;;;17.62;42.54
50268;BME280;36153;50.960;6.220;2023-03-22T10:40:35;99845.66;;;17.68;42.91
50268;BME280;36153;50.960;6.220;2023-03-22T10:43:38;99843.50;;;17.51;42.20
50268;BME280;36153;50.960;6.220;2023-03-22T10:46:40;99839.41;;;17.72;43.14
50268;BME280;36153;50.960;6.220;2023-03-22T10:49:45;99837.31;;;17.83;42.11
50268;BME280;36153;50.960;6.220;2023-03-22T10:52:54;99837.28;;;18.15;41.82
50268;BME280;36153;50.960;6.220;2023-03-22T10:55:57;99836.88;;;17.67;42.26
50268;BME280;36153;50.960;6.220;2023-03-22T10:58:57;99839.28;;;17.44;42.58
50268;BME280;36153;50.960;6.220;2023-03-22T11:01:59;99854.91;;;17.50;42.89
50268;BME280;36153;50.960;6.220;2023-03-22T11:05:03;99852.75;;;17.31;43.16
50268;BME280;36153;50.960;6.220;2023-03-22T11:08:05;99848.72;;;17.52;42.61
50268;BME280;36153;50.960;6.220;2023-03-22T11:11:06;99841.88;;;17.45;42.27
50268;BME280;36153;50.960;6.220;2023-03-22T11:14:35;99855.19;;;17.72;41.91
50268;BME280;36153;50.960;6.220;2023-03-22T11:17:36;99848.63;;;17.55;42.60
50268;BME280;36153;50.960;6.220;2023-03-22T11:20:39;99848.84;;;17.79;41.78
50268;BME280;36153;50.960;6.220;2023-03-22T11:23:46;99846.75;;;18.20;41.69
50268;BME280;36153;50.960;6.220;2023-03-22T11:27:07;99848.69;;;18.15;40.98
50268;BME280;36153;50.960;6.220;2023-03-22T11:30:19;99829.13;;;17.94;41.10
50268;BME280;36153;50.960;6.220;2023-03-22T11:33:20;99836.53;;;18.11;41.50
50268;BME280;36153;50.960;6.220;2023-03-22T11:36:21;99825.63;;;17.94;42.22
50268;BME280;36153;50.960;6.220;2023-03-22T11:39:24;99830.84;;;18.25;41.31
50268;BME280;36153;50.960;6.220;2023-03-22T11:42:27;99823.78;;;18.81;41.32
50268;BME280;36153;50.960;6.220;2023-03-22T11:45:35;99822.69;;;18.88;40.79
50268;BME280;36153;50.960;6.220;2023-03-22T11:48:39;99826.28;;;18.30;41.63
50268;BME280;36153;50.960;6.220;2023-03-22T11:51:41;99823.53;;;18.05;42.08
50268;BME280;36153;50.960;6.220;2023-03-22T11:54:43;99819.56;;;18.20;42.00
50268;BME280;36153;50.960;6.220;2023-03-22T11:57:45;99814.13;;;18.26;42.13
50268;BME280;36153;50.960;6.220;2023-03-22T12:00:46;99810.03;;;18.44;41.81
50268;BME280;36153;50.960;6.220;2023-03-22T12:03:54;99811.50;;;18.26;42.08
50268;BME280;36153;50.960;6.220;2023-03-22T12:06:58;99813.13;;;18.29;42.20
50268;BME280;36153;50.960;6.220;2023-03-22T12:10:13;99806.44;;;18.18;42.67
50268;BME280;36153;50.960;6.220;2023-03-22T12:13:32;99803.97;;;17.82;43.18
50268;BME280;36153;50.960;6.220;2023-03-22T12:16:45;99801.84;;;17.65;43.10
50268;BME280;36153;50.960;6.220;2023-03-22T12:22:58;99798.66;;;17.84;43.40
50268;BME280;36153;50.960;6.220;2023-03-22T12:26:03;99792.66;;;18.10;42.59
50268;BME280;36153;50.960;6.220;2023-03-22T12:29:09;99798.69;;;18.42;42.37
50268;BME280;36153;50.960;6.220;2023-03-22T12:32:20;99801.44;;;18.09;42.60
50268;BME280;36153;50.960;6.220;2023-03-22T12:35:24;99795.63;;;18.28;42.45
50268;BME280;36153;50.960;6.220;2023-03-22T12:38:41;99798.63;;;17.85;42.89
50268;BME280;36153;50.960;6.220;2023-03-22T12:41:49;99791.09;;;18.31;42.62
50268;BME280;36153;50.960;6.220;2023-03-22T12:44:56;99800.22;;;17.93;42.64
50268;BME280;36153;50.960;6.220;2023-03-22T12:51:34;99782.47;;;18.54;42.00
50268;BME280;36153;50.960;6.220;2023-03-22T12:54:35;99784.94;;;18.87;41.32
50268;BME280;36153;50.960;6.220;2023-03-22T12:57:36;99786.38;;;18.96;41.70
50268;BME280;36153;50.960;6.220;2023-03-22T13:03:49;99768.66;;;19.00;41.14
50268;BME280;36153;50.960;6.220;2023-03-22T13:09:52;99778.47;;;18.69;41.68
50268;BME280;36153;50.960;6.220;2023-03-22T13:16:13;99777.97;;;18.58;41.69
50268;BME280;36153;50.960;6.220;2023-03-22T13:19:30;99771.56;;;18.65;42.23
50268;BME280;36153;50.960;6.220;2023-03-22T13:25:37;99764.25;;;18.47;41.82
50268;BME280;36153;50.960;6.220;2023-03-22T13:28:38;99764.63;;;18.07;42.79
50268;BME280;36153;50.960;6.220;2023-03-22T13:31:44;99760.81;;;18.45;42.12
50268;BME280;36153;50.960;6.220;2023-03-22T13:34:48;99765.03;;;18.50;42.22
50268;BME280;36153;50.960;6.220;2023-03-22T13:37:51;99762.06;;;18.06;43.25
50268;BME280;36153;50.960;6.220;2023-03-22T13:44:35;99766.28;;;17.82;43.49
50268;BME280;36153;50.960;6.220;2023-03-22T13:47:44;99762.75;;;17.81;43.78
50268;BME280;36153;50.960;6.220;2023-03-22T13:50:45;99766.28;;;17.82;43.59
50268;BME280;36153;50.960;6.220;2023-03-22T13:54:09;99763.38;;;17.91;43.75
50268;BME280;36153;50.960;6.220;2023-03-22T14:00:48;99758.81;;;18.24;43.42
50268;BME280;36153;50.960;6.220;2023-03-22T14:03:52;99748.16;;;17.71;43.79
50268;BME280;36153;50.960;6.220;2023-03-22T14:06:58;99752.72;;;17.96;43.87
50268;BME280;36153;50.960;6.220;2023-03-22T14:10:22;99746.88;;;18.14;43.37
50268;BME280;36153;50.960;6.220;2023-03-22T14:16:47;99744.44;;;18.08;43.90
50268;BME280;36153;50.960;6.220;2023-03-22T14:19:50;99740.88;;;18.37;43.44
50268;BME280;36153;50.960;6.220;2023-03-22T14:22:58;99751.47;;;18.36;43.75
50268;BME280;36153;50.960;6.220;2023-03-22T14:26:05;99735.19;;;17.95;44.50
50268;BME280;36153;50.960;6.220;2023-03-22T14:29:09;99742.47;;;17.85;44.92
50268;BME280;36153;50.960;6.220;2023-03-22T14:32:16;99738.72;;;17.94;44.63
50268;BME280;36153;50.960;6.220;2023-03-22T14:35:21;99719.13;;;17.74;45.18
50268;BME280;36153;50.960;6.220;2023-03-22T14:38:30;99739.00;;;17.84;44.63
50268;BME280;36153;50.960;6.220;2023-03-22T14:41:31;99737.50;;;17.75;45.10
50268;BME280;36153;50.960;6.220;2023-03-22T14:44:40;99740.63;;;17.88;44.57
50268;BME280;36153;50.960;6.220;2023-03-22T14:47:43;99733.06;;;18.06;44.51
50268;BME280;36153;50.960;6.220;2023-03-22T14:50:46;99727.81;;;18.06;44.53
50268;BME280;36153;50.960;6.220;2023-03-22T14:53:47;99728.47;;;18.13;44.39
50268;BME280;36153;50.960;6.220;2023-03-22T14:56:48;99729.25;;;18.43;44.06
50268;BME280;36153;50.960;6.220;2023-03-22T14:59:49;99724.56;;;18.78;43.54
50268;BME280;36153;50.960;6.220;2023-03-22T15:03:08;99725.66;;;18.46;43.34
50268;BME280;36153;50.960;6.220;2023-03-22T15:06:11;99719.50;;;18.45;43.80
50268;BME280;36153;50.960;6.220;2023-03-22T15:09:14;99716.13;;;18.41;43.93
50268;BME280;36153;50.960;6.220;2023-03-22T15:12:16;99715.13;;;18.71;43.58
50268;BME280;36153;50.960;6.220;2023-03-22T15:15:25;99718.09;;;18.35;44.05
50268;BME280;36153;50.960;6.220;2023-03-22T15:18:29;99717.47;;;18.53;44.10
50268;BME280;36153;50.960;6.220;2023-03-22T15:21:30;99707.47;;;18.63;44.02
50268;BME280;36153;50.960;6.220;2023-03-22T15:24:36;99703.09;;;18.64;44.01
50268;BME280;36153;50.960;6.220;2023-03-22T15:27:36;99692.31;;;18.70;44.38
50268;BME280;36153;50.960;6.220;2023-03-22T15:30:43;99692.47;;;18.13;44.80
50268;BME280;36153;50.960;6.220;2023-03-22T15:33:44;99696.22;;;18.33;44.71
50268;BME280;36153;50.960;6.220;2023-03-22T15:36:46;99682.47;;;18.23;44.65
50268;BME280;36153;50.960;6.220;2023-03-22T15:39:48;99685.84;;;18.53;44.26
50268;BME280;36153;50.960;6.220;2023-03-22T15:42:50;99685.75;;;18.56;44.09
50268;BME280;36153;50.960;6.220;2023-03-22T15:46:18;99685.97;;;18.50;44.09
50268;BME280;36153;50.960;6.220;2023-03-22T15:52:56;99697.31;;;18.52;43.93
50268;BME280;36153;50.960;6.220;2023-03-22T15:55:57;99699.50;;;18.39;44.04
50268;BME280;36153;50.960;6.220;2023-03-22T15:59:00;99691.41;;;18.46;44.20
50268;BME280;36153;50.960;6.220;2023-03-22T16:02:15;99693.38;;;18.39;43.95
50268;BME280;36153;50.960;6.220;2023-03-22T16:05:17;99695.31;;;18.59;43.98
50268;BME280;36153;50.960;6.220;2023-03-22T16:08:18;99686.59;;;18.32;43.83
50268;BME280;36153;50.960;6.220;2023-03-22T16:11:25;99677.22;;;18.23;43.94
50268;BME280;36153;50.960;6.220;2023-03-22T16:14:35;99690.25;;;18.28;44.15
50268;BME280;36153;50.960;6.220;2023-03-22T16:17:39;99690.09;;;18.57;43.62
50268;BME280;36153;50.960;6.220;2023-03-22T16:20:40;99683.69;;;18.65;43.56
50268;BME280;36153;50.960;6.220;2023-03-22T16:23:41;99687.56;;;18.29;43.75
50268;BME280;36153;50.960;6.220;2023-03-22T16:26:44;99691.66;;;18.11;44.17
50268;BME280;36153;50.960;6.220;2023-03-22T16:29:44;99694.13;;;18.16;44.20
50268;BME280;36153;50.960;6.220;2023-03-22T16:32:56;99700.56;;;18.34;43.88
50268;BME280;36153;50.960;6.220;2023-03-22T16:36:02;99702.78;;;17.93;44.82
50268;BME280;36153;50.960;6.220;2023-03-22T16:39:16;99699.22;;;17.94;44.94
50268;BME280;36153;50.960;6.220;2023-03-22T16:42:20;99698.56;;;17.85;44.59
50268;BME280;36153;50.960;6.220;2023-03-22T16:45:38;99697.00;;;17.80;45.10
50268;BME280;36153;50.960;6.220;2023-03-22T16:48:52;99690.56;;;17.90;44.76
50268;BME280;36153;50.960;6.220;2023-03-22T16:51:55;99697.94;;;17.79;45.29
50268;BME280;36153;50.960;6.220;2023-03-22T16:55:01;99696.56;;;17.65;45.62
50268;BME280;36153;50.960;6.220;2023-03-22T16:58:04;99687.78;;;17.95;45.06
50268;BME280;36153;50.960;6.220;2023-03-22T17:01:14;99685.88;;;18.00;45.15
50268;BME280;36153;50.960;6.220;2023-03-22T17:04:29;99687.41;;;18.07;45.11
50268;BME280;36153;50.960;6.220;2023-03-22T17:07:34;99681.75;;;17.91;45.49
50268;BME280;36153;50.960;6.220;2023-03-22T17:10:45;99680.88;;;17.90;45.50
50268;BME280;36153;50.960;6.220;2023-03-22T17:13:53;99681.16;;;17.81;45.74
50268;BME280;36153;50.960;6.220;2023-03-22T17:17:00;99687.41;;;17.79;45.80
50268;BME280;36153;50.960;6.220;2023-03-22T17:20:01;99672.47;;;17.79;46.10
50268;BME280;36153;50.960;6.220;2023-03-22T17:23:03;99674.88;;;17.85;46.15
50268;BME280;36153;50.960;6.220;2023-03-22T17:26:04;99684.16;;;17.99;45.68
50268;BME280;36153;50.960;6.220;2023-03-22T17:29:09;99671.38;;;18.13;45.61